sensor_id;sensor_type;location;lat;lon;timestamp;pressure;altitude;pressure_sealevel;temperature;humidity
24788;BME280;12883;52.662;5.196;2022-12-18T00:01:28;102831.19;;;-0.13;100.00
24788;BME280;12883;52.662;5.196;2022-12-18T00:03:55;102834.69;;;-0.14;100.00
24788;BME280;12883;52.662;5.196;2022-12-18T00:06:22;102819.03;;;-0.14;100.00
24788;BME280;12883;52.662;5.196;2022-12-18T00:08:48;102807.34;;;-0.22;100.00
24788;BME280;12883;52.662;5.196;2022-12-18T00:11:16;102820.78;;;-0.30;100.00
24788;BME280;12883;52.662;5.196;2022-12-18T00:13:42;102816.56;;;-0.32;100.00
24788;BME280;12883;52.662;5.196;2022-12-18T00:16:17;102817.25;;;-0.29;100.00
24788;BME280;12883;52.662;5.196;2022-12-18T00:18:45;102821.91;;;-0.34;100.00
24788;BME280;12883;52.662;5.196;2022-12-18T00:21:12;102774.72;;;-0.62;100.00
24788;BME280;12883;52.662;5.196;2022-12-18T00:23:39;102829.84;;;-0.37;100.00
24788;BME280;12883;52.662;5.196;2022-12-18T00:26:07;102804.31;;;-0.30;100.00
24788;BME280;12883;52.662;5.196;2022-12-18T00:28:33;102827.31;;;-0.38;100.00
24788;BME280;12883;52.662;5.196;2022-12-18T00:31:07;102823.19;;;-0.42;100.00
24788;BME280;12883;52.662;5.196;2022-12-18T00:33:33;102823.13;;;-0.41;100.00
24788;BME280;12883;52.662;5.196;2022-12-18T00:36:03;102821.41;;;-0.42;100.00
24788;BME280;12883;52.662;5.196;2022-12-18T00:38:29;102775.78;;;-0.66;100.00
24788;BME280;12883;52.662;5.196;2022-12-18T00:40:55;102834.31;;;-0.39;100.00
24788;BME280;12883;52.662;5.196;2022-12-18T00:43:20;102837.69;;;-0.37;100.00
24788;BME280;12883;52.662;5.196;2022-12-18T00:45:45;102831.84;;;-0.42;100.00
24788;BME280;12883;52.662;5.196;2022-12-18T00:48:11;102835.69;;;-0.49;100.00
24788;BME280;12883;52.662;5.196;2022-12-18T00:50:36;102799.72;;;-0.75;100.00
24788;BME280;12883;52.662;5.196;2022-12-18T00:53:01;102813.47;;;-0.56;100.00
24788;BME280;12883;52.662;5.196;2022-12-18T00:55:27;102811.97;;;-0.60;100.00
24788;BME280;12883;52.662;5.196;2022-12-18T00:57:52;102821.69;;;-0.63;100.00
24788;BME280;12883;52.662;5.196;2022-12-18T01:00:18;102808.13;;;-0.53;100.00
24788;BME280;12883;52.662;5.196;2022-12-18T01:02:43;102818.22;;;-0.47;100.00
24788;BME280;12883;52.662;5.196;2022-12-18T01:05:10;102816.69;;;-0.51;100.00
24788;BME280;12883;52.662;5.196;2022-12-18T01:07:36;102813.69;;;-0.76;100.00
24788;BME280;12883;52.662;5.196;2022-12-18T01:10:03;102812.72;;;-0.41;100.00
24788;BME280;12883;52.662;5.196;2022-12-18T01:12:29;102814.69;;;-0.46;100.00
24788;BME280;12883;52.662;5.196;2022-12-18T01:14:54;102818.53;;;-0.53;100.00
24788;BME280;12883;52.662;5.196;2022-12-18T01:17:20;102818.63;;;-0.54;100.00
24788;BME280;12883;52.662;5.196;2022-12-18T01:19:45;102820.22;;;-0.52;100.00
24788;BME280;12883;52.662;5.196;2022-12-18T01:22:11;102808.06;;;-0.51;100.00
24788;BME280;12883;52.662;5.196;2022-12-18T01:24:36;102752.31;;;-0.98;100.00
24788;BME280;12883;52.662;5.196;2022-12-18T01:27:02;102826.97;;;-0.65;100.00
24788;BME280;12883;52.662;5.196;2022-12-18T01:29:27;102821.84;;;-0.66;100.00
24788;BME280;12883;52.662;5.196;2022-12-18T01:31:55;102817.25;;;-0.61;100.00
24788;BME280;12883;52.662;5.196;2022-12-18T01:34:20;102823.75;;;-0.70;100.00
24788;BME280;12883;52.662;5.196;2022-12-18T01:36:45;102824.25;;;-0.62;100.00
24788;BME280;12883;52.662;5.196;2022-12-18T01:39:12;102825.13;;;-0.63;100.00
24788;BME280;12883;52.662;5.196;2022-12-18T01:41:38;102838.34;;;-0.66;100.00
24788;BME280;12883;52.662;5.196;2022-12-18T01:47:27;102841.69;;;-0.64;100.00
24788;BME280;12883;52.662;5.196;2022-12-18T01:49:54;102841.88;;;-0.67;100.00
24788;BME280;12883;52.662;5.196;2022-12-18T01:52:21;102833.28;;;-0.69;100.00
24788;BME280;12883;52.662;5.196;2022-12-18T01:54:47;102851.31;;;-0.64;100.00
24788;BME280;12883;52.662;5.196;2022-12-18T01:57:13;102859.88;;;-0.62;100.00
24788;BME280;12883;52.662;5.196;2022-12-18T01:59:39;102870.28;;;-0.62;100.00
24788;BME280;12883;52.662;5.196;2022-12-18T02:02:07;102867.75;;;-0.64;100.00
24788;BME280;12883;52.662;5.196;2022-12-18T02:04:32;102873.50;;;-0.74;100.00
24788;BME280;12883;52.662;5.196;2022-12-18T02:09:35;102869.47;;;-0.80;100.00
24788;BME280;12883;52.662;5.196;2022-12-18T02:12:11;102871.91;;;-0.77;100.00
24788;BME280;12883;52.662;5.196;2022-12-18T02:15:02;102879.13;;;-0.82;100.00
24788;BME280;12883;52.662;5.196;2022-12-18T02:17:37;102881.63;;;-0.80;100.00
24788;BME280;12883;52.662;5.196;2022-12-18T02:20:32;102872.97;;;-0.81;100.00
24788;BME280;12883;52.662;5.196;2022-12-18T02:23:29;102879.78;;;-0.95;100.00
24788;BME280;12883;52.662;5.196;2022-12-18T02:26:19;102886.38;;;-0.88;100.00
24788;BME280;12883;52.662;5.196;2022-12-18T02:28:53;102878.63;;;-0.90;100.00
24788;BME280;12883;52.662;5.196;2022-12-18T02:31:28;102867.31;;;-0.89;100.00
24788;BME280;12883;52.662;5.196;2022-12-18T02:33:56;102860.09;;;-0.84;100.00
24788;BME280;12883;52.662;5.196;2022-12-18T02:36:25;102838.56;;;-0.87;100.00
24788;BME280;12883;52.662;5.196;2022-12-18T02:38:53;102844.03;;;-0.75;100.00
24788;BME280;12883;52.662;5.196;2022-12-18T02:41:24;102831.13;;;-0.78;100.00
24788;BME280;12883;52.662;5.196;2022-12-18T02:43:58;102779.81;;;-1.10;100.00
24788;BME280;12883;52.662;5.196;2022-12-18T02:46:45;102821.56;;;-0.77;100.00
24788;BME280;12883;52.662;5.196;2022-12-18T02:49:35;102819.88;;;-0.78;100.00
24788;BME280;12883;52.662;5.196;2022-12-18T02:54:49;102826.84;;;-0.79;100.00
24788;BME280;12883;52.662;5.196;2022-12-18T02:57:30;102828.69;;;-0.81;100.00
24788;BME280;12883;52.662;5.196;2022-12-18T03:00:07;102827.59;;;-0.77;100.00
24788;BME280;12883;52.662;5.196;2022-12-18T03:05:10;102825.16;;;-0.80;100.00
24788;BME280;12883;52.662;5.196;2022-12-18T03:07:44;102807.47;;;-0.90;100.00
24788;BME280;12883;52.662;5.196;2022-12-18T03:10:14;102822.38;;;-0.77;100.00
24788;BME280;12883;52.662;5.196;2022-12-18T03:12:47;102805.84;;;-0.93;100.00
24788;BME280;12883;52.662;5.196;2022-12-18T03:15:20;102730.19;;;-1.24;100.00
24788;BME280;12883;52.662;5.196;2022-12-18T03:18:10;102818.41;;;-0.84;100.00
24788;BME280;12883;52.662;5.196;2022-12-18T03:20:40;102793.59;;;-0.91;100.00
24788;BME280;12883;52.662;5.196;2022-12-18T03:23:11;102805.63;;;-0.88;100.00
24788;BME280;12883;52.662;5.196;2022-12-18T03:25:40;102809.69;;;-0.83;100.00
24788;BME280;12883;52.662;5.196;2022-12-18T03:28:10;102823.63;;;-0.84;100.00
24788;BME280;12883;52.662;5.196;2022-12-18T03:30:38;102795.59;;;-0.96;100.00
24788;BME280;12883;52.662;5.196;2022-12-18T03:33:12;102803.88;;;-0.88;100.00
24788;BME280;12883;52.662;5.196;2022-12-18T03:35:42;102796.06;;;-0.88;100.00
24788;BME280;12883;52.662;5.196;2022-12-18T03:38:09;102808.84;;;-0.83;100.00
24788;BME280;12883;52.662;5.196;2022-12-18T03:40:45;102804.41;;;-0.98;100.00
24788;BME280;12883;52.662;5.196;2022-12-18T03:43:20;102786.72;;;-1.09;100.00
24788;BME280;12883;52.662;5.196;2022-12-18T03:45:53;102794.69;;;-0.95;100.00
24788;BME280;12883;52.662;5.196;2022-12-18T03:48:28;102798.03;;;-0.76;100.00
24788;BME280;12883;52.662;5.196;2022-12-18T03:51:06;102796.06;;;-0.88;100.00
24788;BME280;12883;52.662;5.196;2022-12-18T03:56:13;102799.72;;;-0.92;100.00
24788;BME280;12883;52.662;5.196;2022-12-18T03:58:42;102800.41;;;-0.88;100.00
24788;BME280;12883;52.662;5.196;2022-12-18T04:01:10;102774.66;;;-0.94;100.00
24788;BME280;12883;52.662;5.196;2022-12-18T04:03:38;102753.84;;;-1.11;100.00
24788;BME280;12883;52.662;5.196;2022-12-18T04:06:05;102796.97;;;-0.89;100.00
24788;BME280;12883;52.662;5.196;2022-12-18T04:08:31;102743.94;;;-1.05;100.00
24788;BME280;12883;52.662;5.196;2022-12-18T04:10:59;102801.25;;;-0.88;100.00
24788;BME280;12883;52.662;5.196;2022-12-18T04:13:28;102799.47;;;-0.87;100.00
24788;BME280;12883;52.662;5.196;2022-12-18T04:15:54;102791.53;;;-0.84;100.00
24788;BME280;12883;52.662;5.196;2022-12-18T04:18:19;102783.94;;;-0.89;100.00
24788;BME280;12883;52.662;5.196;2022-12-18T04:20:45;102792.34;;;-0.84;100.00
24788;BME280;12883;52.662;5.196;2022-12-18T04:23:10;102777.38;;;-0.96;100.00
24788;BME280;12883;52.662;5.196;2022-12-18T04:25:36;102784.25;;;-0.95;100.00
24788;BME280;12883;52.662;5.196;2022-12-18T04:28:01;102782.25;;;-0.90;100.00
24788;BME280;12883;52.662;5.196;2022-12-18T04:30:27;102734.34;;;-1.37;100.00
24788;BME280;12883;52.662;5.196;2022-12-18T04:32:52;102780.19;;;-1.00;100.00
24788;BME280;12883;52.662;5.196;2022-12-18T04:35:17;102769.25;;;-1.07;100.00
24788;BME280;12883;52.662;5.196;2022-12-18T04:37:43;102782.88;;;-1.02;100.00
24788;BME280;12883;52.662;5.196;2022-12-18T04:40:08;102789.22;;;-1.07;100.00
24788;BME280;12883;52.662;5.196;2022-12-18T04:42:34;102785.56;;;-1.20;100.00
24788;BME280;12883;52.662;5.196;2022-12-18T04:44:59;102787.16;;;-1.18;100.00
24788;BME280;12883;52.662;5.196;2022-12-18T04:47:24;102793.03;;;-1.14;100.00
24788;BME280;12883;52.662;5.196;2022-12-18T04:49:50;102794.38;;;-1.23;100.00
24788;BME280;12883;52.662;5.196;2022-12-18T04:52:15;102807.44;;;-1.24;100.00
24788;BME280;12883;52.662;5.196;2022-12-18T04:54:41;102770.50;;;-1.49;100.00
24788;BME280;12883;52.662;5.196;2022-12-18T04:57:06;102825.38;;;-1.18;100.00
24788;BME280;12883;52.662;5.196;2022-12-18T04:59:31;102828.63;;;-1.32;100.00
24788;BME280;12883;52.662;5.196;2022-12-18T05:01:57;102833.72;;;-1.29;100.00
24788;BME280;12883;52.662;5.196;2022-12-18T05:04:22;102780.94;;;-1.68;100.00
24788;BME280;12883;52.662;5.196;2022-12-18T05:06:47;102839.16;;;-1.33;100.00
24788;BME280;12883;52.662;5.196;2022-12-18T05:09:13;102834.75;;;-1.33;100.00
24788;BME280;12883;52.662;5.196;2022-12-18T05:11:38;102834.34;;;-1.42;100.00
24788;BME280;12883;52.662;5.196;2022-12-18T05:14:03;102841.88;;;-1.36;100.00
24788;BME280;12883;52.662;5.196;2022-12-18T05:16:29;102845.34;;;-1.36;100.00
24788;BME280;12883;52.662;5.196;2022-12-18T05:18:54;102845.34;;;-1.36;100.00
24788;BME280;12883;52.662;5.196;2022-12-18T05:21:19;102862.78;;;-1.38;100.00
24788;BME280;12883;52.662;5.196;2022-12-18T05:23:45;102853.28;;;-1.39;100.00
24788;BME280;12883;52.662;5.196;2022-12-18T05:26:15;102856.59;;;-1.54;100.00
24788;BME280;12883;52.662;5.196;2022-12-18T05:28:42;102845.78;;;-1.45;100.00
24788;BME280;12883;52.662;5.196;2022-12-18T05:31:08;102841.00;;;-1.54;100.00
24788;BME280;12883;52.662;5.196;2022-12-18T05:33:34;102835.38;;;-1.45;100.00
24788;BME280;12883;52.662;5.196;2022-12-18T05:36:05;102832.41;;;-1.56;100.00
24788;BME280;12883;52.662;5.196;2022-12-18T05:38:32;102836.72;;;-1.55;100.00
24788;BME280;12883;52.662;5.196;2022-12-18T05:40:58;102844.56;;;-1.56;100.00
24788;BME280;12883;52.662;5.196;2022-12-18T05:43:24;102836.41;;;-1.49;100.00
24788;BME280;12883;52.662;5.196;2022-12-18T05:45:51;102844.38;;;-1.52;100.00
24788;BME280;12883;52.662;5.196;2022-12-18T05:48:17;102847.19;;;-1.38;100.00
24788;BME280;12883;52.662;5.196;2022-12-18T05:50:44;102827.22;;;-1.56;100.00
24788;BME280;12883;52.662;5.196;2022-12-18T05:53:14;102832.13;;;-1.50;100.00
24788;BME280;12883;52.662;5.196;2022-12-18T05:55:41;102820.97;;;-1.52;100.00
24788;BME280;12883;52.662;5.196;2022-12-18T05:58:07;102816.53;;;-1.50;100.00
24788;BME280;12883;52.662;5.196;2022-12-18T06:00:35;102830.34;;;-1.49;100.00
24788;BME280;12883;52.662;5.196;2022-12-18T06:03:01;102825.25;;;-1.51;100.00
24788;BME280;12883;52.662;5.196;2022-12-18T06:05:27;102827.69;;;-1.48;100.00
24788;BME280;12883;52.662;5.196;2022-12-18T06:07:53;102824.63;;;-1.56;100.00
24788;BME280;12883;52.662;5.196;2022-12-18T06:10:18;102843.00;;;-1.59;100.00
24788;BME280;12883;52.662;5.196;2022-12-18T06:12:43;102810.22;;;-1.63;100.00
24788;BME280;12883;52.662;5.196;2022-12-18T06:15:09;102816.59;;;-1.51;100.00
24788;BME280;12883;52.662;5.196;2022-12-18T06:17:35;102814.66;;;-1.65;100.00
24788;BME280;12883;52.662;5.196;2022-12-18T06:20:01;102766.84;;;-1.81;100.00
24788;BME280;12883;52.662;5.196;2022-12-18T06:22:26;102819.75;;;-1.45;100.00
24788;BME280;12883;52.662;5.196;2022-12-18T06:24:52;102812.31;;;-1.52;100.00
24788;BME280;12883;52.662;5.196;2022-12-18T06:27:18;102809.94;;;-1.57;100.00
24788;BME280;12883;52.662;5.196;2022-12-18T06:29:43;102790.94;;;-1.59;100.00
24788;BME280;12883;52.662;5.196;2022-12-18T06:32:08;102810.56;;;-1.52;100.00
24788;BME280;12883;52.662;5.196;2022-12-18T06:34:34;102809.63;;;-1.51;100.00
24788;BME280;12883;52.662;5.196;2022-12-18T06:37:02;102806.94;;;-1.49;100.00
24788;BME280;12883;52.662;5.196;2022-12-18T06:39:27;102777.59;;;-1.70;100.00
24788;BME280;12883;52.662;5.196;2022-12-18T06:41:53;102743.88;;;-1.90;100.00
24788;BME280;12883;52.662;5.196;2022-12-18T06:44:18;102757.13;;;-1.77;100.00
24788;BME280;12883;52.662;5.196;2022-12-18T06:46:44;102787.72;;;-1.47;100.00
24788;BME280;12883;52.662;5.196;2022-12-18T06:49:09;102785.53;;;-1.54;100.00
24788;BME280;12883;52.662;5.196;2022-12-18T06:51:35;102782.69;;;-1.50;100.00
24788;BME280;12883;52.662;5.196;2022-12-18T06:54:00;102768.41;;;-1.60;100.00
24788;BME280;12883;52.662;5.196;2022-12-18T06:56:26;102770.66;;;-1.52;100.00
24788;BME280;12883;52.662;5.196;2022-12-18T06:58:51;102768.59;;;-1.46;100.00
24788;BME280;12883;52.662;5.196;2022-12-18T07:01:17;102713.06;;;-1.80;100.00
24788;BME280;12883;52.662;5.196;2022-12-18T07:03:42;102764.47;;;-1.50;100.00
24788;BME280;12883;52.662;5.196;2022-12-18T07:06:17;102758.63;;;-1.55;100.00
24788;BME280;12883;52.662;5.196;2022-12-18T07:08:43;102718.72;;;-1.89;100.00
24788;BME280;12883;52.662;5.196;2022-12-18T07:11:09;102756.50;;;-1.64;100.00
24788;BME280;12883;52.662;5.196;2022-12-18T07:13:34;102743.78;;;-1.70;100.00
24788;BME280;12883;52.662;5.196;2022-12-18T07:16:14;102759.84;;;-1.62;100.00
24788;BME280;12883;52.662;5.196;2022-12-18T07:18:39;102754.00;;;-1.48;100.00
24788;BME280;12883;52.662;5.196;2022-12-18T07:21:06;102751.00;;;-1.58;100.00
24788;BME280;12883;52.662;5.196;2022-12-18T07:23:33;102703.50;;;-1.80;100.00
24788;BME280;12883;52.662;5.196;2022-12-18T07:26:07;102689.97;;;-1.86;100.00
24788;BME280;12883;52.662;5.196;2022-12-18T07:28:34;102716.19;;;-1.91;100.00
24788;BME280;12883;52.662;5.196;2022-12-18T07:31:07;102707.88;;;-1.63;100.00
24788;BME280;12883;52.662;5.196;2022-12-18T07:33:33;102724.50;;;-1.49;100.00
24788;BME280;12883;52.662;5.196;2022-12-18T07:36:00;102728.16;;;-1.53;100.00
24788;BME280;12883;52.662;5.196;2022-12-18T07:38:26;102726.19;;;-1.48;100.00
24788;BME280;12883;52.662;5.196;2022-12-18T07:40:51;102733.38;;;-1.53;100.00
24788;BME280;12883;52.662;5.196;2022-12-18T07:43:17;102729.25;;;-1.40;100.00
24788;BME280;12883;52.662;5.196;2022-12-18T07:45:42;102730.19;;;-1.41;100.00
24788;BME280;12883;52.662;5.196;2022-12-18T07:48:08;102728.97;;;-1.51;100.00
24788;BME280;12883;52.662;5.196;2022-12-18T07:50:33;102727.28;;;-1.52;100.00
24788;BME280;12883;52.662;5.196;2022-12-18T07:52:58;102717.16;;;-1.41;100.00
24788;BME280;12883;52.662;5.196;2022-12-18T07:55:28;102713.50;;;-1.37;100.00
24788;BME280;12883;52.662;5.196;2022-12-18T07:57:54;102715.19;;;-1.36;100.00
24788;BME280;12883;52.662;5.196;2022-12-18T08:00:19;102709.06;;;-1.35;100.00
24788;BME280;12883;52.662;5.196;2022-12-18T08:02:44;102704.91;;;-1.39;100.00
24788;BME280;12883;52.662;5.196;2022-12-18T08:05:10;102711.50;;;-1.32;100.00
24788;BME280;12883;52.662;5.196;2022-12-18T08:07:35;102703.00;;;-1.35;100.00
24788;BME280;12883;52.662;5.196;2022-12-18T08:10:00;102715.81;;;-1.31;100.00
24788;BME280;12883;52.662;5.196;2022-12-18T08:12:26;102707.53;;;-1.22;100.00
24788;BME280;12883;52.662;5.196;2022-12-18T08:14:51;102704.50;;;-1.14;100.00
24788;BME280;12883;52.662;5.196;2022-12-18T08:17:16;102699.94;;;-1.26;100.00
24788;BME280;12883;52.662;5.196;2022-12-18T08:19:42;102705.19;;;-1.11;100.00
24788;BME280;12883;52.662;5.196;2022-12-18T08:22:07;102715.63;;;-1.11;100.00
24788;BME280;12883;52.662;5.196;2022-12-18T08:24:32;102719.00;;;-1.09;100.00
24788;BME280;12883;52.662;5.196;2022-12-18T08:26:58;102721.84;;;-1.13;100.00
24788;BME280;12883;52.662;5.196;2022-12-18T08:29:23;102715.47;;;-1.08;100.00
24788;BME280;12883;52.662;5.196;2022-12-18T08:31:48;102722.53;;;-1.10;100.00
24788;BME280;12883;52.662;5.196;2022-12-18T08:34:14;102721.88;;;-0.98;100.00
24788;BME280;12883;52.662;5.196;2022-12-18T08:36:39;102738.19;;;-0.94;100.00
24788;BME280;12883;52.662;5.196;2022-12-18T08:39:05;102740.34;;;-1.02;100.00
24788;BME280;12883;52.662;5.196;2022-12-18T08:41:30;102739.66;;;-1.06;100.00
24788;BME280;12883;52.662;5.196;2022-12-18T08:43:55;102742.28;;;-1.06;100.00
24788;BME280;12883;52.662;5.196;2022-12-18T08:46:41;102743.03;;;-1.04;100.00
24788;BME280;12883;52.662;5.196;2022-12-18T08:49:08;102749.00;;;-0.85;100.00
24788;BME280;12883;52.662;5.196;2022-12-18T08:51:33;102724.94;;;-0.90;100.00
24788;BME280;12883;52.662;5.196;2022-12-18T08:53:59;102705.88;;;-0.90;100.00
24788;BME280;12883;52.662;5.196;2022-12-18T08:56:24;102680.38;;;-1.01;100.00
24788;BME280;12883;52.662;5.196;2022-12-18T08:58:54;102661.97;;;-1.13;100.00
24788;BME280;12883;52.662;5.196;2022-12-18T09:01:20;102714.41;;;-0.71;100.00
24788;BME280;12883;52.662;5.196;2022-12-18T09:03:46;102707.91;;;-0.80;100.00
24788;BME280;12883;52.662;5.196;2022-12-18T09:06:14;102719.69;;;-0.73;100.00
24788;BME280;12883;52.662;5.196;2022-12-18T09:08:39;102718.97;;;-0.59;100.00
24788;BME280;12883;52.662;5.196;2022-12-18T09:11:11;102715.00;;;-0.66;100.00
24788;BME280;12883;52.662;5.196;2022-12-18T09:13:37;102692.22;;;-0.78;100.00
24788;BME280;12883;52.662;5.196;2022-12-18T09:16:03;102727.56;;;-0.57;100.00
24788;BME280;12883;52.662;5.196;2022-12-18T09:18:28;102730.41;;;-0.62;100.00
24788;BME280;12883;52.662;5.196;2022-12-18T09:20:54;102719.81;;;-0.59;100.00
24788;BME280;12883;52.662;5.196;2022-12-18T09:23:20;102717.91;;;-0.40;100.00
24788;BME280;12883;52.662;5.196;2022-12-18T09:25:45;102699.91;;;-0.60;100.00
24788;BME280;12883;52.662;5.196;2022-12-18T09:28:13;102714.44;;;-0.56;100.00
24788;BME280;12883;52.662;5.196;2022-12-18T09:30:41;102708.66;;;-0.61;100.00
24788;BME280;12883;52.662;5.196;2022-12-18T09:33:08;102626.63;;;-1.02;100.00
24788;BME280;12883;52.662;5.196;2022-12-18T09:35:36;102690.91;;;-0.39;100.00
24788;BME280;12883;52.662;5.196;2022-12-18T09:38:04;102692.44;;;-0.50;100.00
24788;BME280;12883;52.662;5.196;2022-12-18T09:40:35;102681.00;;;-0.48;100.00
24788;BME280;12883;52.662;5.196;2022-12-18T09:43:04;102682.69;;;-0.47;100.00
24788;BME280;12883;52.662;5.196;2022-12-18T09:45:42;102646.25;;;-0.64;100.00
24788;BME280;12883;52.662;5.196;2022-12-18T09:48:23;102663.75;;;-0.50;100.00
24788;BME280;12883;52.662;5.196;2022-12-18T09:50:49;102670.00;;;-0.37;100.00
24788;BME280;12883;52.662;5.196;2022-12-18T09:53:19;102664.53;;;-0.33;100.00
24788;BME280;12883;52.662;5.196;2022-12-18T09:55:47;102659.88;;;-0.28;100.00
24788;BME280;12883;52.662;5.196;2022-12-18T10:00:45;102660.53;;;-0.24;100.00
24788;BME280;12883;52.662;5.196;2022-12-18T10:03:13;102648.34;;;-0.24;100.00
24788;BME280;12883;52.662;5.196;2022-12-18T10:08:42;102607.75;;;-0.43;100.00
24788;BME280;12883;52.662;5.196;2022-12-18T10:13:53;102650.84;;;-0.07;100.00
24788;BME280;12883;52.662;5.196;2022-12-18T10:16:27;102653.47;;;-0.07;100.00
24788;BME280;12883;52.662;5.196;2022-12-18T10:19:04;102655.31;;;-0.09;100.00
24788;BME280;12883;52.662;5.196;2022-12-18T10:21:47;102608.16;;;-0.20;100.00
24788;BME280;12883;52.662;5.196;2022-12-18T10:27:18;102629.13;;;0.08;100.00
24788;BME280;12883;52.662;5.196;2022-12-18T10:29:47;102627.00;;;0.14;100.00
24788;BME280;12883;52.662;5.196;2022-12-18T10:32:18;102624.13;;;0.19;100.00
24788;BME280;12883;52.662;5.196;2022-12-18T10:34:46;102594.81;;;0.00;100.00
24788;BME280;12883;52.662;5.196;2022-12-18T10:37:16;102625.38;;;0.27;100.00
24788;BME280;12883;52.662;5.196;2022-12-18T10:39:42;102622.13;;;0.38;100.00
24788;BME280;12883;52.662;5.196;2022-12-18T10:42:17;102647.09;;;0.28;100.00
24788;BME280;12883;52.662;5.196;2022-12-18T10:44:42;102649.28;;;0.20;100.00
24788;BME280;12883;52.662;5.196;2022-12-18T10:47:14;102634.22;;;0.25;100.00
24788;BME280;12883;52.662;5.196;2022-12-18T10:49:47;102591.00;;;0.05;100.00
24788;BME280;12883;52.662;5.196;2022-12-18T10:52:20;102638.47;;;0.41;100.00
24788;BME280;12883;52.662;5.196;2022-12-18T10:55:01;102619.31;;;0.27;100.00
24788;BME280;12883;52.662;5.196;2022-12-18T10:57:37;102642.00;;;0.40;100.00
24788;BME280;12883;52.662;5.196;2022-12-18T11:00:26;102642.28;;;0.36;100.00
24788;BME280;12883;52.662;5.196;2022-12-18T11:02:52;102633.88;;;0.31;100.00
24788;BME280;12883;52.662;5.196;2022-12-18T11:05:33;102627.72;;;0.32;100.00
24788;BME280;12883;52.662;5.196;2022-12-18T11:07:59;102614.56;;;0.33;100.00
24788;BME280;12883;52.662;5.196;2022-12-18T11:10:32;102608.34;;;0.36;100.00
24788;BME280;12883;52.662;5.196;2022-12-18T11:13:18;102601.84;;;0.43;100.00
24788;BME280;12883;52.662;5.196;2022-12-18T11:15:45;102591.13;;;0.47;100.00
24788;BME280;12883;52.662;5.196;2022-12-18T11:18:31;102587.63;;;0.33;100.00
24788;BME280;12883;52.662;5.196;2022-12-18T11:23:26;102588.22;;;0.52;100.00
24788;BME280;12883;52.662;5.196;2022-12-18T11:25:57;102581.91;;;0.70;100.00
24788;BME280;12883;52.662;5.196;2022-12-18T11:31:25;102580.78;;;0.60;100.00
24788;BME280;12883;52.662;5.196;2022-12-18T11:34:15;102580.97;;;0.57;100.00
24788;BME280;12883;52.662;5.196;2022-12-18T11:36:47;102571.25;;;0.59;100.00
24788;BME280;12883;52.662;5.196;2022-12-18T11:39:33;102566.13;;;0.57;100.00
24788;BME280;12883;52.662;5.196;2022-12-18T11:42:14;102556.16;;;0.64;100.00
24788;BME280;12883;52.662;5.196;2022-12-18T11:44:44;102560.72;;;0.60;100.00
24788;BME280;12883;52.662;5.196;2022-12-18T11:47:27;102566.97;;;0.72;100.00
24788;BME280;12883;52.662;5.196;2022-12-18T11:49:56;102588.44;;;0.77;100.00
24788;BME280;12883;52.662;5.196;2022-12-18T11:52:28;102525.75;;;0.63;100.00
24788;BME280;12883;52.662;5.196;2022-12-18T11:55:00;102544.03;;;0.91;100.00
24788;BME280;12883;52.662;5.196;2022-12-18T11:57:50;102527.22;;;0.81;100.00
24788;BME280;12883;52.662;5.196;2022-12-18T12:00:21;102521.84;;;0.70;100.00
24788;BME280;12883;52.662;5.196;2022-12-18T12:08:27;102507.63;;;0.88;100.00
24788;BME280;12883;52.662;5.196;2022-12-18T12:17:04;102488.34;;;0.76;100.00
24788;BME280;12883;52.662;5.196;2022-12-18T12:19:44;102507.59;;;1.02;100.00
24788;BME280;12883;52.662;5.196;2022-12-18T12:25:07;102496.72;;;0.95;100.00
24788;BME280;12883;52.662;5.196;2022-12-18T12:35:55;102481.25;;;1.19;100.00
24788;BME280;12883;52.662;5.196;2022-12-18T12:38:43;102465.00;;;1.14;100.00
24788;BME280;12883;52.662;5.196;2022-12-18T12:41:14;102498.34;;;1.10;100.00
24788;BME280;12883;52.662;5.196;2022-12-18T12:44:03;102468.00;;;1.08;100.00
24788;BME280;12883;52.662;5.196;2022-12-18T12:46:34;102471.47;;;1.08;100.00
24788;BME280;12883;52.662;5.196;2022-12-18T12:49:03;102472.47;;;1.20;100.00
24788;BME280;12883;52.662;5.196;2022-12-18T12:51:37;102477.88;;;1.17;100.00
24788;BME280;12883;52.662;5.196;2022-12-18T12:54:09;102464.53;;;1.21;100.00
24788;BME280;12883;52.662;5.196;2022-12-18T12:56:56;102460.47;;;1.30;100.00
24788;BME280;12883;52.662;5.196;2022-12-18T12:59:31;102473.41;;;1.19;100.00
24788;BME280;12883;52.662;5.196;2022-12-18T13:04:54;102467.03;;;1.23;100.00
24788;BME280;12883;52.662;5.196;2022-12-18T13:07:29;102465.34;;;1.22;100.00
24788;BME280;12883;52.662;5.196;2022-12-18T13:12:51;102473.34;;;1.33;100.00
24788;BME280;12883;52.662;5.196;2022-12-18T13:15:39;102473.09;;;1.23;100.00
24788;BME280;12883;52.662;5.196;2022-12-18T13:23:26;102402.78;;;1.06;100.00
24788;BME280;12883;52.662;5.196;2022-12-18T13:31:00;102408.06;;;1.19;100.00
24788;BME280;12883;52.662;5.196;2022-12-18T13:36:25;102398.34;;;1.33;100.00
24788;BME280;12883;52.662;5.196;2022-12-18T13:39:11;102403.81;;;1.43;100.00
24788;BME280;12883;52.662;5.196;2022-12-18T13:41:41;102372.28;;;1.07;100.00
24788;BME280;12883;52.662;5.196;2022-12-18T13:44:32;102383.84;;;1.29;100.00
24788;BME280;12883;52.662;5.196;2022-12-18T13:46:59;102375.06;;;1.30;100.00
24788;BME280;12883;52.662;5.196;2022-12-18T13:49:38;102381.94;;;1.31;100.00
24788;BME280;12883;52.662;5.196;2022-12-18T13:52:17;102387.47;;;1.27;100.00
24788;BME280;12883;52.662;5.196;2022-12-18T13:54:47;102372.34;;;1.32;100.00
24788;BME280;12883;52.662;5.196;2022-12-18T13:57:32;102371.00;;;1.39;100.00
24788;BME280;12883;52.662;5.196;2022-12-18T14:00:16;102376.09;;;1.28;100.00
24788;BME280;12883;52.662;5.196;2022-12-18T14:02:44;102375.06;;;1.43;100.00
24788;BME280;12883;52.662;5.196;2022-12-18T14:05:25;102286.81;;;0.82;100.00
24788;BME280;12883;52.662;5.196;2022-12-18T14:07:52;102358.50;;;1.30;100.00